createdAt,value
2023-01-10T00:00:40.823Z,1.33
2023-01-10T00:04:40.569Z,1.3
2023-01-10T00:08:40.660Z,1.1
2023-01-10T00:12:40.583Z,1.03
2023-01-10T00:16:40.708Z,1.37
2023-01-10T00:20:40.518Z,1.33
2023-01-10T00:24:40.581Z,1.3
2023-01-10T00:28:40.507Z,1.47
2023-01-10T00:32:39.976Z,1.57
2023-01-10T00:36:41.077Z,1.47
2023-01-10T00:40:40.866Z,1.43
2023-01-10T00:44:40.499Z,1.37
2023-01-10T00:48:39.658Z,1.77
2023-01-10T00:52:40.295Z,1.3
2023-01-10T00:56:39.427Z,1.2
2023-01-10T01:00:40.532Z,1.43
2023-01-10T01:04:40.555Z,1.2
2023-01-10T01:08:40.533Z,1.5
2023-01-10T01:12:40.431Z,1.5
2023-01-10T01:16:40.598Z,1.8
2023-01-10T01:20:40.524Z,1.4
2023-01-10T01:24:40.518Z,1.2
2023-01-10T01:28:40.551Z,1.47
2023-01-10T01:32:40.376Z,1.3
2023-01-10T01:36:40.700Z,1.43
2023-01-10T01:40:40.604Z,1.77
2023-01-10T01:44:40.590Z,1.5
2023-01-10T01:48:40.467Z,1.7
2023-01-10T01:52:40.503Z,1.2
2023-01-10T01:56:40.616Z,1.63
2023-01-10T02:00:40.899Z,2
2023-01-10T02:04:40.578Z,1.7
2023-01-10T02:08:40.844Z,1.37
2023-01-10T02:12:40.447Z,2.2
2023-01-10T02:16:40.425Z,1.37
2023-01-10T02:20:40.596Z,1.8
2023-01-10T02:24:40.656Z,0.87
2023-01-10T02:28:40.548Z,1.83
2023-01-10T02:32:48.022Z,2.6
2023-01-10T02:36:40.564Z,1.5
2023-01-10T02:40:40.507Z,2.23
2023-01-10T02:44:41.202Z,2.47
2023-01-10T02:48:40.555Z,2.07
2023-01-10T02:52:39.784Z,1.87
2023-01-10T02:56:40.371Z,1.9
2023-01-10T03:00:40.879Z,1.53
2023-01-10T03:04:40.586Z,2.1
2023-01-10T03:08:40.808Z,2.23
2023-01-10T03:12:40.431Z,2.7
2023-01-10T03:16:40.678Z,2.1
2023-01-10T03:20:40.498Z,2.63
2023-01-10T03:24:40.602Z,1.9
2023-01-10T03:28:40.344Z,2.63
2023-01-10T03:32:40.647Z,2.47
2023-01-10T03:36:40.631Z,2.6
2023-01-10T03:40:40.313Z,3
2023-01-10T03:44:40.642Z,2.43
2023-01-10T03:48:40.599Z,2.6
2023-01-10T03:52:40.675Z,2.1
2023-01-10T03:56:40.562Z,2.57
2023-01-10T04:00:40.559Z,2.7
2023-01-10T04:04:40.772Z,2.77
2023-01-10T04:08:40.339Z,2.8
2023-01-10T04:12:40.468Z,3.67
2023-01-10T04:16:40.572Z,2.4
2023-01-10T04:20:40.722Z,2.83
2023-01-10T04:24:40.537Z,3.1
2023-01-10T04:28:40.697Z,2.7
2023-01-10T04:32:40.599Z,3.4
2023-01-10T04:36:40.452Z,3.5
2023-01-10T04:40:41.217Z,3
2023-01-10T04:44:40.270Z,3.33
2023-01-10T04:48:40.506Z,2.97
2023-01-10T04:52:40.619Z,2.5
2023-01-10T04:56:40.127Z,3.73
2023-01-10T05:00:40.719Z,3.47
2023-01-10T05:04:40.516Z,3.03
2023-01-10T05:08:40.678Z,3.43
2023-01-10T05:12:40.586Z,3.43
2023-01-10T05:16:40.371Z,4.9
2023-01-10T05:20:40.591Z,3.27
2023-01-10T05:24:40.671Z,4.43
2023-01-10T05:28:40.559Z,3.8
2023-01-10T05:32:40.782Z,4.97
2023-01-10T05:36:39.947Z,3.97
2023-01-10T05:40:40.950Z,4.23
2023-01-10T05:44:40.641Z,4.73
2023-01-10T05:48:40.635Z,4.27
2023-01-10T05:52:39.426Z,4.57
2023-01-10T05:56:40.327Z,4.4
2023-01-10T06:00:41.274Z,4.7
2023-01-10T06:04:40.279Z,5.1
2023-01-10T06:08:40.489Z,4.47
2023-01-10T06:12:40.559Z,4.43
2023-01-10T06:16:41.110Z,4.63
2023-01-10T06:20:40.397Z,4
2023-01-10T06:24:40.498Z,4.97
2023-01-10T06:28:40.939Z,4.6
2023-01-10T06:32:40.623Z,4.7
2023-01-10T06:36:40.488Z,5.53
2023-01-10T06:40:40.215Z,6.8
2023-01-10T06:44:40.876Z,6.1
2023-01-10T06:48:40.652Z,5
2023-01-10T06:52:40.596Z,4.93
2023-01-10T06:56:40.614Z,4.7
2023-01-10T07:00:40.650Z,3.67
2023-01-10T07:04:40.603Z,3.63
2023-01-10T07:08:39.635Z,4.23
2023-01-10T07:12:40.686Z,4.87
2023-01-10T07:16:40.149Z,4.4
2023-01-10T07:20:40.943Z,4.7
2023-01-10T07:24:40.653Z,5
2023-01-10T07:28:40.503Z,2.77
2023-01-10T07:32:40.653Z,4.23
2023-01-10T07:36:40.292Z,4.57
2023-01-10T07:40:40.585Z,4.47
2023-01-10T07:44:40.965Z,3.37
2023-01-10T07:48:40.576Z,4.7
2023-01-10T07:52:40.910Z,4.2
2023-01-10T07:56:40.667Z,3.67
2023-01-10T08:00:40.520Z,4.63
2023-01-10T08:04:40.545Z,3.93
2023-01-10T08:08:39.920Z,3.83
2023-01-10T08:12:40.894Z,3.6
2023-01-10T08:16:40.394Z,3.83
2023-01-10T08:20:40.504Z,3.9
2023-01-10T08:24:41.166Z,4.87
2023-01-10T08:28:40.526Z,4.07
2023-01-10T08:32:39.455Z,5.6
2023-01-10T08:36:40.449Z,4.33
2023-01-10T08:40:40.619Z,4.13
2023-01-10T08:44:40.596Z,4.57
2023-01-10T08:48:40.577Z,4.47
2023-01-10T08:52:40.538Z,4.07
2023-01-10T08:56:40.514Z,4
2023-01-10T09:00:40.756Z,4.6
2023-01-10T09:04:41.006Z,4.97
2023-01-10T09:08:40.336Z,5.62
2023-01-10T09:12:40.902Z,4.9
2023-01-10T09:16:40.515Z,4.18
2023-01-10T09:20:40.390Z,4.8
2023-01-10T09:24:41.248Z,5.47
2023-01-10T09:28:40.303Z,4.7
2023-01-10T09:32:41.004Z,4.6
2023-01-10T09:36:40.783Z,5.03
2023-01-10T09:40:40.502Z,4.7
2023-01-10T09:44:40.531Z,5.03
2023-01-10T09:48:40.567Z,3.85
2023-01-10T09:52:41.170Z,4.3
2023-01-10T09:56:40.518Z,4.5
2023-01-10T10:00:40.667Z,4.45
2023-01-10T10:04:40.973Z,4.53
2023-01-10T10:08:40.597Z,5.13
2023-01-10T10:12:39.340Z,5.6
2023-01-10T10:16:40.683Z,5.28
2023-01-10T10:20:40.544Z,4.32
2023-01-10T10:24:41.298Z,4.53
2023-01-10T10:28:53.502Z,4.8
2023-01-10T10:32:39.859Z,4.9
2023-01-10T10:36:40.667Z,3.65
2023-01-10T10:40:39.928Z,4.43
2023-01-10T10:44:40.464Z,3.7
2023-01-10T10:48:40.594Z,4.97
2023-01-10T10:52:40.339Z,3.6
2023-01-10T10:56:40.333Z,3.28
2023-01-10T11:00:41.151Z,3.58
2023-01-10T11:04:40.516Z,3.85
2023-01-10T11:08:40.655Z,3.15
2023-01-10T11:12:40.376Z,3.62
2023-01-10T11:16:40.600Z,4.3
2023-01-10T11:20:40.559Z,3.47
2023-01-10T11:24:39.529Z,3.6
2023-01-10T11:28:40.631Z,3.1
2023-01-10T11:32:40.554Z,2.95
2023-01-10T11:36:40.733Z,3.9
2023-01-10T11:40:40.591Z,2.83
2023-01-10T11:44:40.572Z,2.92
2023-01-10T11:49:03.786Z,2.65
2023-01-10T11:52:40.563Z,3.15
2023-01-10T11:56:40.242Z,3.2
2023-01-10T12:00:40.538Z,3.2
2023-01-10T12:04:41.166Z,3.37
2023-01-10T12:08:41.200Z,2.8
2023-01-10T12:12:40.508Z,8.23
2023-01-10T12:16:40.745Z,3.53
2023-01-10T12:20:40.472Z,3.55
2023-01-10T12:24:40.587Z,3.25
2023-01-10T12:28:40.404Z,3.15
2023-01-10T12:32:40.548Z,3.4
2023-01-10T12:36:40.558Z,5.03
2023-01-10T12:40:41.223Z,3
2023-01-10T12:44:40.747Z,4.03
2023-01-10T12:48:40.741Z,3.5
2023-01-10T12:52:40.712Z,2.9
2023-01-10T12:56:40.392Z,3.6
2023-01-10T13:00:48.305Z,2.72
2023-01-10T13:04:39.781Z,2.47
2023-01-10T13:08:43.292Z,2.12
2023-01-10T13:12:40.503Z,2.58
2023-01-10T13:16:40.494Z,2.35
2023-01-10T13:20:40.624Z,2.75
2023-01-10T13:24:40.373Z,3
2023-01-10T13:28:40.611Z,2.08
2023-01-10T13:32:40.873Z,2.17
2023-01-10T13:36:40.757Z,1.8
2023-01-10T13:40:40.562Z,2.87
2023-01-10T13:44:40.538Z,2.12
2023-01-10T13:48:40.914Z,1.95
2023-01-10T13:52:40.792Z,1.9
2023-01-10T13:56:40.378Z,1.58
2023-01-10T14:00:40.605Z,2
2023-01-10T14:04:41.007Z,2.08
2023-01-10T14:08:40.653Z,1.5
2023-01-10T14:12:40.593Z,1.55
2023-01-10T14:20:40.468Z,1.4
2023-01-10T14:24:40.395Z,1.33
2023-01-10T14:28:39.982Z,1.58
2023-01-10T14:32:39.322Z,1.3
2023-01-10T14:36:40.951Z,1.65
2023-01-10T14:40:40.707Z,1.6
2023-01-10T14:44:40.461Z,2.42
2023-01-10T14:48:40.538Z,2.12
2023-01-10T14:52:40.641Z,2.05
2023-01-10T14:56:40.531Z,1.3
2023-01-10T15:00:40.569Z,1.77
2023-01-10T15:04:40.776Z,1.5
2023-01-10T15:08:39.853Z,1.65
2023-01-10T15:12:40.772Z,1.3
2023-01-10T15:16:40.644Z,1.37
2023-01-10T15:20:40.643Z,1.5
2023-01-10T15:24:40.370Z,2.1
2023-01-10T15:28:40.614Z,1.75
2023-01-10T15:32:40.482Z,1.77
2023-01-10T15:36:40.954Z,1.83
2023-01-10T15:40:41.116Z,3.28
2023-01-10T15:44:40.348Z,1.92
2023-01-10T15:48:41.761Z,1.77
2023-01-10T15:52:41.718Z,2.7
2023-01-10T15:56:40.339Z,2.45
2023-01-10T16:00:40.763Z,2.25
2023-01-10T16:04:40.684Z,3.07
2023-01-10T16:08:40.545Z,4.1
2023-01-10T16:12:40.443Z,3.47
2023-01-10T16:16:40.711Z,3.1
2023-01-10T16:20:40.500Z,3.05
2023-01-10T16:24:40.788Z,3.4
2023-01-10T16:28:40.556Z,2.1
2023-01-10T16:32:40.673Z,2.28
2023-01-10T16:36:41.192Z,2.22
2023-01-10T16:40:40.609Z,2.2
2023-01-10T16:44:40.645Z,2.17
2023-01-10T16:48:40.694Z,2.33
2023-01-10T16:52:40.517Z,3.13
2023-01-10T16:56:40.872Z,1.8
2023-01-10T17:00:40.697Z,1.73
2023-01-10T17:04:40.569Z,2.92
2023-01-10T17:08:40.696Z,2.12
2023-01-10T17:12:40.560Z,3.83
2023-01-10T17:16:40.454Z,2.4
2023-01-10T17:20:40.561Z,2.77
2023-01-10T17:24:40.477Z,2.12
2023-01-10T17:28:40.571Z,3.12
2023-01-10T17:32:41.283Z,3.2
2023-01-10T17:36:41.118Z,2.67
2023-01-10T17:40:40.614Z,2.47
2023-01-10T17:44:40.598Z,3
2023-01-10T17:48:40.678Z,3.4
2023-01-10T17:52:40.543Z,3.23
2023-01-10T17:56:40.655Z,3.17
2023-01-10T18:00:40.599Z,3.97
2023-01-10T18:04:40.594Z,3.53
2023-01-10T18:08:40.928Z,3.87
2023-01-10T18:12:40.513Z,3.57
2023-01-10T18:16:40.579Z,3.42
2023-01-10T18:20:40.284Z,5.1
2023-01-10T18:24:40.532Z,7.6
2023-01-10T18:28:42.349Z,11.45
2023-01-10T18:32:40.402Z,3.22
2023-01-10T18:36:40.539Z,2.87
2023-01-10T18:40:40.630Z,3.43
2023-01-10T18:44:40.566Z,4.1
2023-01-10T18:48:39.969Z,3.85
2023-01-10T18:52:39.591Z,2.97
2023-01-10T18:56:40.691Z,2.8
2023-01-10T19:00:40.748Z,3.2
2023-01-10T19:04:40.632Z,3.33
2023-01-10T19:08:40.575Z,3.43
2023-01-10T19:12:40.549Z,2.5
2023-01-10T19:16:41.152Z,2.77
2023-01-10T19:20:40.565Z,2.5
2023-01-10T19:24:40.321Z,3.57
2023-01-10T19:28:40.556Z,3.9
2023-01-10T19:32:40.524Z,3.27
2023-01-10T19:36:40.573Z,4.62
2023-01-10T19:40:40.364Z,3.7
2023-01-10T19:44:40.630Z,2.73
2023-01-10T19:48:40.586Z,2.8
2023-01-10T19:52:40.496Z,2.97
2023-01-10T19:56:40.490Z,3.13
2023-01-10T20:00:40.693Z,2.9
2023-01-10T20:04:40.687Z,2.5
2023-01-10T20:08:40.604Z,2.77
2023-01-10T20:12:40.573Z,2.9
2023-01-10T20:16:40.824Z,2.87
2023-01-10T20:20:41.594Z,3.5
2023-01-10T20:24:40.583Z,3.13
2023-01-10T20:28:39.690Z,3.83
2023-01-10T20:32:40.478Z,3.73
2023-01-10T20:36:40.415Z,3.4
2023-01-10T20:40:40.504Z,5.2
2023-01-10T20:44:40.709Z,4.17
2023-01-10T20:48:41.125Z,3.03
2023-01-10T20:52:41.007Z,3.23
2023-01-10T20:56:40.476Z,3.17
2023-01-10T21:00:40.549Z,3.47
2023-01-10T21:04:40.280Z,3.27
2023-01-10T21:08:40.926Z,3.63
2023-01-10T21:12:40.626Z,3.1
2023-01-10T21:16:40.533Z,3.3
2023-01-10T21:20:40.463Z,3.93
2023-01-10T21:24:40.526Z,3.87
2023-01-10T21:28:39.523Z,4
2023-01-10T21:32:40.480Z,4.97
2023-01-10T21:36:40.493Z,3.8
2023-01-10T21:40:40.677Z,3.63
2023-01-10T21:44:40.505Z,2.8
2023-01-10T21:48:40.635Z,3.03
2023-01-10T21:52:40.541Z,3.13
2023-01-10T21:56:40.599Z,2.87
2023-01-10T22:00:41.021Z,3.7
2023-01-10T22:04:40.627Z,2.13
2023-01-10T22:08:40.711Z,2.2
2023-01-10T22:12:40.610Z,1.9
2023-01-10T22:16:40.365Z,1.93
2023-01-10T22:20:40.622Z,2.67
2023-01-10T22:24:41.966Z,2.3
2023-01-10T22:28:40.326Z,2.47
2023-01-10T22:32:40.480Z,2.2
2023-01-10T22:36:40.475Z,2.5
2023-01-10T22:40:40.512Z,2.47
2023-01-10T22:44:40.730Z,2.97
2023-01-10T22:48:40.864Z,4.77
2023-01-10T22:52:40.497Z,3.5
2023-01-10T22:56:40.520Z,3.3
2023-01-10T23:00:40.480Z,3.6
2023-01-10T23:04:40.560Z,4.57
2023-01-10T23:08:40.469Z,3.03
2023-01-10T23:12:40.977Z,4.4
2023-01-10T23:16:40.133Z,4.1
2023-01-10T23:20:40.377Z,5.73
2023-01-10T23:24:40.509Z,3.37
2023-01-10T23:28:40.564Z,4.93
2023-01-10T23:32:40.714Z,3.77
2023-01-10T23:36:40.536Z,2.17
2023-01-10T23:40:41.284Z,3.13
2023-01-10T23:44:40.201Z,4.6
2023-01-10T23:48:39.709Z,4.43
2023-01-10T23:52:41.060Z,3.57
2023-01-10T23:56:40.638Z,2.77
